»·PEaware :: ASA180 KMFR-KPDX

ASA180 :: KMFR-KPDX

FLIGHT INFORMATION

Flight Status: Arrived
Operator:
Alaska Airlines
More flights by this operator :: More flights under this callsign
Pilot: Etienne B. (28927)
Aircraft: AIRBUS A320
(A320)
More flights by this aircraft type
Origin: KMFR Rogue Valley Intl-Medford
United States
Destination: KPDX Portland Intl
United States
More flights between these airports :: More routes between these airports
Route: +EAGLE6 MOXEE PORTL TMBRS2
File this flight plan on PilotEdge
Remarks: RMK / SIMBRIEF
Altitude:
(Current/Filed)
26,000ft
Speed:
(Current/Filed)
392kts
Departed: 05-May-20 05:04 PM
Arrived: 05-May-20 05:40 PM
Distance/Time
Traveled:
193nm/0:36
Distance/Time
To Go:
Arrived

Flight Plot

Page will automatically refresh every two minutes.

Flight plan parsing failed; only flown route is shown


Map Options




Map Legend


Flown Route
Filed Route
Departure Airport
Arrival Airport
Navaid (VOR, NDB)
Fix

Horizontal Profiles

Position Reports

Time Latitude Longitude Heading Altitude Ground
Speed
05-May-20 16:48 42.369107 -122.873621 246 1321ft 0kts
05-May-20 16:49 42.369107 -122.873621 246 1321ft 0kts
05-May-20 16:50 42.369107 -122.873621 246 1321ft 0kts
05-May-20 16:51 42.369107 -122.873621 246 1321ft 0kts
05-May-20 16:52 42.369107 -122.873621 246 1321ft 0kts
05-May-20 16:53 42.369107 -122.873621 246 1321ft 0kts
05-May-20 16:54 42.369107 -122.873621 246 1321ft 0kts
05-May-20 16:55 42.369107 -122.873621 246 1321ft 0kts
05-May-20 16:56 42.369107 -122.873621 246 1321ft 0kts
05-May-20 16:57 42.369163 -122.873448 239 1321ft 2kts
05-May-20 16:58 42.369641 -122.873061 181 1322ft 2kts
05-May-20 16:59 42.369910 -122.873132 157 1322ft 0kts
05-May-20 17:00 42.369910 -122.873132 157 1322ft 0kts
05-May-20 17:01 42.366729 -122.870548 159 1327ft 22kts
05-May-20 17:02 42.364146 -122.867630 350 1333ft 7kts
05-May-20 17:03 42.396154 -122.883712 348 2141ft 183kts
05-May-20 17:04 42.443935 -122.853473 28 4801ft 206kts
05-May-20 17:05 42.501027 -122.809149 27 6915ft 265kts
05-May-20 17:06 42.569159 -122.757007 27 9403ft 298kts
05-May-20 17:07 42.647428 -122.713134 359 11969ft 319kts
05-May-20 17:08 42.744792 -122.715694 356 13076ft 380kts
05-May-20 17:09 42.853427 -122.718718 355 15058ft 398kts
05-May-20 17:10 42.966296 -122.721709 355 16733ft 418kts
05-May-20 17:11 43.085772 -122.724816 355 18206ft 439kts
05-May-20 17:12 43.209151 -122.728065 354 19809ft 450kts
05-May-20 17:13 43.335737 -122.731401 353 21247ft 461kts
05-May-20 17:14 43.465223 -122.734824 352 22589ft 471kts
05-May-20 17:15 43.597009 -122.738308 352 24078ft 474kts
05-May-20 17:16 43.728097 -122.741816 351 25755ft 471kts
05-May-20 17:17 43.858593 -122.745315 350 26161ft 469kts
05-May-20 17:18 43.987500 -122.748729 350 25684ft 448kts
05-May-20 17:19 44.107743 -122.752008 350 24722ft 418kts
05-May-20 17:20 44.222928 -122.745879 356 24146ft 414kts
05-May-20 17:21 44.339628 -122.734418 358 22077ft 422kts
05-May-20 17:22 44.454792 -122.721709 358 20391ft 409kts
05-May-20 17:23 44.566301 -122.711831 359 18735ft 397kts
05-May-20 17:24 44.674596 -122.701155 0 17123ft 385kts
05-May-20 17:25 44.779288 -122.690642 1 15183ft 368kts
05-May-20 17:26 44.877108 -122.680830 2 13111ft 332kts
05-May-20 17:27 44.964908 -122.672042 2 11673ft 311kts
05-May-20 17:28 45.050861 -122.663194 1 10244ft 309kts
05-May-20 17:29 45.136426 -122.654496 1 8828ft 307kts
05-May-20 17:30 45.220631 -122.645911 1 7472ft 302kts
05-May-20 17:31 45.295786 -122.598438 46 6062ft 299kts
05-May-20 17:32 45.342955 -122.505956 56 5216ft 276kts
05-May-20 17:33 45.394558 -122.435133 18 4499ft 254kts
05-May-20 17:34 45.461073 -122.403357 13 3453ft 252kts
05-May-20 17:35 45.522068 -122.416244 297 2727ft 214kts
05-May-20 17:36 45.542691 -122.489825 297 1675ft 175kts
05-May-20 17:37 45.563985 -122.541604 298 648ft 140kts
05-May-20 17:38 45.582666 -122.589465 299 40ft 137kts
05-May-20 17:39 45.588271 -122.602017 330 38ft 0kts
05-May-20 17:40 45.588526 -122.602202 334 38ft 5kts
05-May-20 17:41 45.589238 -122.600843 109 38ft 9kts

Navigation Log

Ident Type
Flight plan parsing failed, navigation log unavailable